Time;durP1;ratioP1;P1;durP2;ratioP2;P2;SDS_P1;SDS_P2;PMS_P1;PMS_P2;Temp;Humidity;BMP_temperature;BMP_pressure;BME280_temperature;BME280_humidity;BME280_pressure;Samples;Min_cycle;Max_cycle;Signal;HPM_P1;HPM_P2
2022/05/20 00:00:32;;;;;;;8.73;6.00;;;;;;;;;;6241786;23;20598;-54
2022/05/20 00:02:58;;;;;;;8.60;5.50;;;;;;;;;;6236931;23;20377;-55
2022/05/20 00:05:24;;;;;;;5.90;4.60;;;;;;;;;;6240960;23;20849;-56
2022/05/20 00:07:50;;;;;;;8.20;5.80;;;;;;;;;;6227047;23;20908;-53
2022/05/20 00:10:17;;;;;;;5.17;4.40;;;;;;;;;;6244560;23;20389;-55
2022/05/20 00:12:43;;;;;;;8.03;5.73;;;;;;;;;;6223866;23;20661;-56
2022/05/20 00:15:10;;;;;;;8.30;5.40;;;;;;;;;;6243809;22;20463;-56
2022/05/20 00:17:36;;;;;;;6.73;5.77;;;;;;;;;;6227177;23;20373;-54
2022/05/20 00:20:05;;;;;;;6.00;5.03;;;;;;;;;;6242374;23;20705;-55
2022/05/20 00:22:31;;;;;;;6.50;4.97;;;;;;;;;;6237122;23;20416;-55
2022/05/20 00:27:42;;;;;;;6.53;5.40;;;;;;;;;;6225098;23;20543;-57
2022/05/20 00:30:09;;;;;;;6.53;4.37;;;;;;;;;;6243005;23;20383;-55
2022/05/20 00:32:35;;;;;;;8.13;5.80;;;;;;;;;;6227091;23;20688;-56
2022/05/20 00:35:01;;;;;;;6.67;5.97;;;;;;;;;;6242576;23;20363;-55
2022/05/20 00:37:45;;;;;;;5.80;5.10;;;;;;;;;;6230763;23;20802;-55
2022/05/20 00:40:13;;;;;;;6.97;5.40;;;;;;;;;;6236029;22;20504;-55
2022/05/20 00:42:40;;;;;;;7.50;5.63;;;;;;;;;;6222290;23;20827;-55
2022/05/20 00:45:06;;;;;;;6.27;5.70;;;;;;;;;;6240166;23;20432;-55
2022/05/20 00:47:32;;;;;;;5.90;5.30;;;;;;;;;;6236553;23;20397;-56
2022/05/20 00:49:59;;;;;;;5.83;4.80;;;;;;;;;;6241792;23;20919;-54
2022/05/20 00:52:26;;;;;;;6.10;4.90;;;;;;;;;;6217598;23;20610;-55
2022/05/20 00:54:53;;;;;;;8.70;4.90;;;;;;;;;;6242706;23;20400;-59
2022/05/20 00:57:29;;;;;;;8.90;4.90;;;;;;;;;;6235089;23;20382;-55
2022/05/20 01:00:03;;;;;;;7.47;5.20;;;;;;;;;;6243583;23;20369;-55
2022/05/20 01:02:35;;;;;;;5.37;4.73;;;;;;;;;;6228324;23;20704;-55
2022/05/20 01:05:03;;;;;;;5.60;5.10;;;;;;;;;;6243734;23;20501;-56
2022/05/20 01:07:32;;;;;;;7.07;4.80;;;;;;;;;;6236568;23;20382;-56
2022/05/20 01:10:01;;;;;;;5.60;5.07;;;;;;;;;;6224690;23;20375;-56
2022/05/20 01:12:28;;;;;;;6.30;4.67;;;;;;;;;;6225988;22;20398;-55
2022/05/20 01:14:54;;;;;;;6.50;4.80;;;;;;;;;;6243926;23;20362;-55
2022/05/20 01:17:20;;;;;;;7.67;5.60;;;;;;;;;;6230719;23;20390;-55
2022/05/20 01:19:50;;;;;;;5.30;4.80;;;;;;;;;;6245294;23;20151;-55
2022/05/20 01:22:25;;;;;;;6.63;5.07;;;;;;;;;;6223235;23;20955;-55
2022/05/20 01:24:51;;;;;;;5.67;4.80;;;;;;;;;;6241607;23;20452;-55
2022/05/20 01:27:17;;;;;;;5.93;5.30;;;;;;;;;;6239377;23;20647;-55
2022/05/20 01:29:44;;;;;;;6.17;5.50;;;;;;;;;;6237719;23;20376;-54
2022/05/20 01:32:36;;;;;;;7.37;4.93;;;;;;;;;;6240483;23;20410;-55
2022/05/20 01:35:15;;;;;;;7.47;5.10;;;;;;;;;;6265357;22;20165;-55
2022/05/20 01:37:41;;;;;;;7.47;4.90;;;;;;;;;;6210078;23;20382;-54
2022/05/20 01:40:07;;;;;;;7.83;5.67;;;;;;;;;;6243288;23;21177;-54
2022/05/20 01:42:41;;;;;;;5.10;4.60;;;;;;;;;;6227883;23;20785;-60
2022/05/20 01:45:14;;;;;;;9.47;4.87;;;;;;;;;;6243816;23;20440;-55
2022/05/20 01:47:43;;;;;;;6.90;5.93;;;;;;;;;;6227825;23;21011;-55
2022/05/20 01:50:11;;;;;;;9.30;5.83;;;;;;;;;;6242534;23;20374;-55
2022/05/20 01:52:40;;;;;;;6.93;5.77;;;;;;;;;;6191628;23;20588;-54
2022/05/20 01:55:08;;;;;;;5.23;4.73;;;;;;;;;;6242164;23;20370;-55
2022/05/20 01:57:58;;;;;;;5.27;4.73;;;;;;;;;;6234757;23;20407;-55
2022/05/20 02:00:25;;;;;;;7.63;5.83;;;;;;;;;;6227876;23;20490;-56
2022/05/20 02:02:59;;;;;;;5.80;4.80;;;;;;;;;;6225030;23;20390;-55
2022/05/20 02:05:27;;;;;;;9.83;5.97;;;;;;;;;;6241229;23;20868;-55
2022/05/20 02:07:54;;;;;;;8.20;7.30;;;;;;;;;;6233368;23;20379;-56
2022/05/20 02:10:32;;;;;;;4.70;4.27;;;;;;;;;;6242477;23;20389;-54
2022/05/20 02:12:59;;;;;;;5.87;5.27;;;;;;;;;;6236052;23;21036;-58
2022/05/20 02:15:28;;;;;;;6.17;5.40;;;;;;;;;;6242242;23;20386;-56
2022/05/20 02:17:58;;;;;;;4.90;4.40;;;;;;;;;;6228376;23;20398;-54
2022/05/20 02:20:31;;;;;;;7.13;5.73;;;;;;;;;;6242790;23;20402;-56
2022/05/20 02:23:00;;;;;;;6.20;5.53;;;;;;;;;;6227624;23;20374;-55
2022/05/20 02:25:28;;;;;;;5.70;5.20;;;;;;;;;;6242918;23;20772;-55
2022/05/20 02:27:56;;;;;;;7.37;5.17;;;;;;;;;;6226250;23;20720;-54
2022/05/20 02:30:23;;;;;;;5.50;4.87;;;;;;;;;;6243080;23;20381;-54
2022/05/20 02:32:51;;;;;;;6.30;5.47;;;;;;;;;;6225453;23;20967;-55
2022/05/20 02:35:17;;;;;;;7.27;6.00;;;;;;;;;;6242269;23;20422;-55
2022/05/20 02:37:43;;;;;;;6.37;5.63;;;;;;;;;;6235959;23;20459;-56
2022/05/20 02:40:10;;;;;;;6.30;5.70;;;;;;;;;;6241881;23;20387;-55
2022/05/20 02:42:37;;;;;;;7.07;5.33;;;;;;;;;;6237624;23;20526;-56
2022/05/20 02:45:03;;;;;;;7.47;6.17;;;;;;;;;;6242111;23;20422;-56
2022/05/20 02:47:41;;;;;;;9.13;5.53;;;;;;;;;;6231488;23;20783;-56
2022/05/20 02:50:13;;;;;;;7.77;5.80;;;;;;;;;;6239720;22;20404;-56
2022/05/20 02:52:39;;;;;;;7.10;6.50;;;;;;;;;;6224892;23;20382;-56
2022/05/20 02:55:05;;;;;;;6.03;5.43;;;;;;;;;;6222102;23;20457;-54
2022/05/20 02:57:31;;;;;;;6.30;5.20;;;;;;;;;;6241402;23;20370;-56
2022/05/20 03:05:27;;;;;;;7.33;5.73;;;;;;;;;;6223430;23;20488;-55
2022/05/20 03:07:53;;;;;;;6.67;5.70;;;;;;;;;;6242348;23;20432;-54
2022/05/20 03:10:29;;;;;;;6.60;5.60;;;;;;;;;;6234886;23;20390;-55
2022/05/20 03:13:02;;;;;;;6.33;5.80;;;;;;;;;;6242019;23;20396;-55
2022/05/20 03:15:28;;;;;;;6.20;5.60;;;;;;;;;;6225047;22;20417;-55
2022/05/20 03:17:54;;;;;;;5.67;5.10;;;;;;;;;;6242456;23;20374;-55
2022/05/20 03:20:20;;;;;;;7.30;6.40;;;;;;;;;;6226867;23;20386;-55
2022/05/20 03:22:50;;;;;;;5.73;5.23;;;;;;;;;;6242865;23;20366;-56
2022/05/20 03:25:16;;;;;;;8.20;6.40;;;;;;;;;;6201077;23;20517;-56
2022/05/20 03:27:42;;;;;;;6.03;5.30;;;;;;;;;;6243647;23;20695;-55
2022/05/20 03:30:10;;;;;;;7.30;6.10;;;;;;;;;;6231006;23;20926;-55
2022/05/20 03:32:36;;;;;;;5.47;4.97;;;;;;;;;;6242179;23;20363;-55
2022/05/20 03:35:30;;;;;;;8.43;5.83;;;;;;;;;;6243296;23;20369;-56
2022/05/20 03:37:56;;;;;;;6.17;5.10;;;;;;;;;;6241232;23;20371;-55
2022/05/20 03:40:22;;;;;;;6.73;6.07;;;;;;;;;;6238111;23;20370;-54
2022/05/20 03:42:48;;;;;;;7.27;5.57;;;;;;;;;;6243394;23;20397;-55
2022/05/20 03:45:22;;;;;;;7.57;6.20;;;;;;;;;;6240559;23;20822;-56
2022/05/20 03:47:49;;;;;;;6.87;5.70;;;;;;;;;;6242107;22;20459;-53
2022/05/20 03:50:23;;;;;;;6.70;6.00;;;;;;;;;;6243580;23;20371;-55
2022/05/20 03:52:50;;;;;;;7.53;5.17;;;;;;;;;;6242160;22;20690;-54
2022/05/20 03:55:35;;;;;;;6.47;5.87;;;;;;;;;;6237358;23;20405;-55
2022/05/20 03:58:01;;;;;;;9.30;6.07;;;;;;;;;;6242503;23;20375;-55
2022/05/20 04:03:40;;;;;;;6.30;5.73;;;;;;;;;;6243049;23;20875;-55
2022/05/20 04:06:06;;;;;;;6.33;5.67;;;;;;;;;;6238557;23;20437;-54
2022/05/20 04:08:32;;;;;;;6.23;5.20;;;;;;;;;;6242427;23;20370;-53
2022/05/20 04:10:57;;;;;;;8.43;5.30;;;;;;;;;;6231247;23;20925;-54
2022/05/20 04:13:23;;;;;;;7.07;5.70;;;;;;;;;;6241557;23;20148;-54
2022/05/20 04:15:51;;;;;;;6.17;5.57;;;;;;;;;;6239534;23;20366;-53
2022/05/20 04:18:18;;;;;;;6.53;5.93;;;;;;;;;;6243031;22;20892;-57
2022/05/20 04:20:44;;;;;;;5.97;5.37;;;;;;;;;;6223564;22;20479;-56
2022/05/20 04:23:10;;;;;;;8.23;6.10;;;;;;;;;;6242826;23;20913;-56
2022/05/20 04:25:36;;;;;;;8.17;5.23;;;;;;;;;;6227215;23;20433;-55
2022/05/20 04:28:02;;;;;;;5.63;5.17;;;;;;;;;;6241810;22;20374;-55
2022/05/20 04:30:54;;;;;;;5.90;4.90;;;;;;;;;;6240541;23;20377;-56
2022/05/20 04:33:20;;;;;;;6.80;4.90;;;;;;;;;;6238162;22;20358;-56
2022/05/20 04:35:45;;;;;;;6.10;5.00;;;;;;;;;;6240282;23;20373;-55
2022/05/20 04:38:15;;;;;;;6.30;5.70;;;;;;;;;;6230405;23;20359;-56
2022/05/20 04:40:43;;;;;;;6.27;5.77;;;;;;;;;;6236532;23;20213;-56
2022/05/20 04:48:57;;;;;;;7.03;4.20;;;;;;;;;;6237807;23;20444;-56
2022/05/20 04:51:25;;;;;;;6.40;4.70;;;;;;;;;;6239738;23;20417;-56
2022/05/20 04:56:36;;;;;;;6.90;4.67;;;;;;;;;;6224550;23;20381;-56
2022/05/20 04:59:03;;;;;;;5.63;4.80;;;;;;;;;;6239810;23;20375;-55
2022/05/20 05:01:29;;;;;;;5.73;4.47;;;;;;;;;;6218214;22;20148;-57
2022/05/20 05:03:55;;;;;;;5.40;4.30;;;;;;;;;;6234806;23;20362;-53
2022/05/20 05:06:32;;;;;;;4.80;4.27;;;;;;;;;;6236890;23;20986;-55
2022/05/20 05:08:58;;;;;;;5.17;4.20;;;;;;;;;;6241823;22;20637;-54
2022/05/20 05:11:24;;;;;;;6.43;4.60;;;;;;;;;;6228797;23;20759;-53
2022/05/20 05:13:50;;;;;;;4.67;4.17;;;;;;;;;;6241989;23;20413;-53
2022/05/20 05:16:16;;;;;;;5.60;4.47;;;;;;;;;;6231566;23;20213;-54
2022/05/20 05:18:42;;;;;;;8.20;4.60;;;;;;;;;;6234697;23;20825;-53
2022/05/20 05:21:08;;;;;;;5.00;4.50;;;;;;;;;;6234608;23;20375;-52
2022/05/20 05:23:34;;;;;;;3.83;3.40;;;;;;;;;;6241241;23;20409;-54
2022/05/20 05:26:00;;;;;;;4.60;4.03;;;;;;;;;;6229242;23;20436;-53
2022/05/20 05:28:26;;;;;;;5.00;4.27;;;;;;;;;;6241851;23;20373;-53
2022/05/20 05:30:52;;;;;;;5.30;4.77;;;;;;;;;;6231148;22;20699;-53
2022/05/20 05:33:19;;;;;;;6.00;4.90;;;;;;;;;;6242821;23;20363;-55
2022/05/20 05:35:46;;;;;;;6.47;5.03;;;;;;;;;;6231376;23;20695;-55
2022/05/20 05:38:13;;;;;;;6.77;4.53;;;;;;;;;;6229809;22;20409;-55
2022/05/20 05:40:39;;;;;;;6.53;4.67;;;;;;;;;;6242965;23;20373;-54
2022/05/20 05:43:05;;;;;;;4.97;4.07;;;;;;;;;;6233924;23;20967;-55
2022/05/20 05:45:32;;;;;;;5.80;4.37;;;;;;;;;;6241646;23;21002;-55
2022/05/20 05:48:00;;;;;;;4.90;4.40;;;;;;;;;;6230616;22;20511;-55
2022/05/20 05:50:26;;;;;;;6.93;4.83;;;;;;;;;;6239325;23;20371;-54
2022/05/20 05:52:58;;;;;;;8.83;4.47;;;;;;;;;;6229197;23;20377;-53
2022/05/20 05:55:25;;;;;;;5.57;4.00;;;;;;;;;;6239907;23;20582;-53
2022/05/20 05:57:50;;;;;;;5.73;4.60;;;;;;;;;;6229408;23;21024;-55
2022/05/20 06:00:17;;;;;;;10.67;4.23;;;;;;;;;;6241102;23;20369;-54
2022/05/20 06:02:50;;;;;;;7.60;4.20;;;;;;;;;;6231159;23;20151;-55
2022/05/20 06:05:19;;;;;;;4.67;4.17;;;;;;;;;;6240409;23;20967;-54
2022/05/20 06:08:14;;;;;;;4.43;3.83;;;;;;;;;;6242682;23;20377;-54
2022/05/20 06:10:45;;;;;;;5.27;4.77;;;;;;;;;;6238526;22;20398;-54
2022/05/20 06:13:47;;;;;;;4.80;4.30;;;;;;;;;;6240435;23;20912;-55
2022/05/20 06:16:24;;;;;;;4.30;3.90;;;;;;;;;;6237019;23;20881;-54
2022/05/20 06:18:51;;;;;;;4.73;4.23;;;;;;;;;;6229542;23;20377;-54
2022/05/20 06:21:17;;;;;;;7.87;5.23;;;;;;;;;;6239971;23;20234;-54
2022/05/20 06:23:43;;;;;;;4.90;4.20;;;;;;;;;;6230164;23;20885;-54
2022/05/20 06:26:09;;;;;;;4.77;4.27;;;;;;;;;;6242421;23;20201;-55
2022/05/20 06:28:49;;;;;;;5.80;4.10;;;;;;;;;;6230247;23;20693;-56
2022/05/20 06:31:16;;;;;;;6.73;3.27;;;;;;;;;;6241043;23;20401;-53
2022/05/20 06:33:52;;;;;;;5.90;4.20;;;;;;;;;;6234224;23;20378;-55
2022/05/20 06:42:00;;;;;;;4.63;3.93;;;;;;;;;;6242235;23;20382;-54
2022/05/20 06:44:28;;;;;;;5.30;4.80;;;;;;;;;;6232068;23;20578;-55
2022/05/20 06:47:24;;;;;;;6.90;4.07;;;;;;;;;;6235196;22;20761;-57
2022/05/20 06:52:39;;;;;;;8.10;3.90;;;;;;;;;;6229296;22;20397;-56
2022/05/20 06:55:32;;;;;;;6.13;3.80;;;;;;;;;;6232048;23;20381;-56
2022/05/20 06:57:58;;;;;;;7.33;4.00;;;;;;;;;;6232830;22;20386;-56
2022/05/20 07:00:24;;;;;;;6.17;4.17;;;;;;;;;;6223096;23;20389;-54
2022/05/20 07:02:50;;;;;;;9.33;4.77;;;;;;;;;;6235629;23;20378;-55
2022/05/20 07:05:17;;;;;;;5.73;4.37;;;;;;;;;;6218521;23;20999;-57
2022/05/20 07:07:43;;;;;;;6.83;4.83;;;;;;;;;;6234257;23;20386;-54
2022/05/20 07:10:28;;;;;;;5.07;4.57;;;;;;;;;;6237075;23;20370;-58
2022/05/20 07:13:00;;;;;;;5.40;4.30;;;;;;;;;;6238224;22;20884;-55
2022/05/20 07:15:38;;;;;;;5.00;3.80;;;;;;;;;;6231535;23;20386;-55
2022/05/20 07:18:07;;;;;;;4.87;4.37;;;;;;;;;;6234659;22;21183;-56
2022/05/20 07:20:33;;;;;;;7.83;3.70;;;;;;;;;;6229972;23;20379;-55
2022/05/20 07:22:59;;;;;;;5.50;4.17;;;;;;;;;;6232454;23;20700;-55
2022/05/20 07:25:36;;;;;;;5.33;4.47;;;;;;;;;;6226284;23;20739;-55
2022/05/20 07:28:02;;;;;;;6.07;4.47;;;;;;;;;;6232772;22;20385;-54
2022/05/20 07:30:29;;;;;;;8.50;4.63;;;;;;;;;;6216115;23;20613;-54
2022/05/20 07:32:56;;;;;;;5.43;4.03;;;;;;;;;;6235319;23;20370;-55
2022/05/20 07:35:22;;;;;;;5.07;4.47;;;;;;;;;;6216345;23;20382;-55
2022/05/20 07:37:50;;;;;;;4.80;4.30;;;;;;;;;;6234445;23;20393;-56
2022/05/20 07:40:17;;;;;;;5.60;4.30;;;;;;;;;;6229211;22;20390;-56
2022/05/20 07:42:44;;;;;;;4.70;4.30;;;;;;;;;;6210185;23;20391;-57
2022/05/20 07:45:14;;;;;;;5.07;4.13;;;;;;;;;;6235173;22;20423;-56
2022/05/20 07:47:40;;;;;;;5.23;4.17;;;;;;;;;;6222562;23;20449;-56
2022/05/20 07:50:07;;;;;;;6.73;5.17;;;;;;;;;;6235335;23;20461;-56
2022/05/20 07:55:20;;;;;;;6.50;4.70;;;;;;;;;;6231449;23;20380;-55
2022/05/20 07:57:46;;;;;;;7.03;4.57;;;;;;;;;;6217370;23;21049;-55
2022/05/20 08:00:14;;;;;;;8.23;4.70;;;;;;;;;;6232831;23;20456;-57
2022/05/20 08:02:40;;;;;;;5.30;4.10;;;;;;;;;;6214996;22;20382;-56
2022/05/20 08:05:10;;;;;;;4.70;4.30;;;;;;;;;;6232896;23;20425;-56
2022/05/20 08:07:45;;;;;;;6.83;5.10;;;;;;;;;;6228486;23;20469;-55
2022/05/20 08:10:12;;;;;;;5.27;4.30;;;;;;;;;;6232904;23;20393;-54
2022/05/20 08:12:38;;;;;;;6.37;4.87;;;;;;;;;;6216040;23;20528;-55
2022/05/20 08:15:04;;;;;;;4.83;4.07;;;;;;;;;;6230269;23;20358;-55
2022/05/20 08:17:41;;;;;;;7.13;4.80;;;;;;;;;;6221843;23;20468;-55
2022/05/20 08:20:13;;;;;;;5.00;4.50;;;;;;;;;;6232951;22;20377;-55
2022/05/20 08:22:39;;;;;;;6.10;4.90;;;;;;;;;;6215463;23;20473;-56
2022/05/20 08:25:05;;;;;;;7.10;4.80;;;;;;;;;;6228225;23;20869;-55
2022/05/20 08:27:33;;;;;;;6.73;4.27;;;;;;;;;;6216459;23;20155;-55
2022/05/20 08:30:02;;;;;;;6.67;5.00;;;;;;;;;;6232165;23;20409;-55
2022/05/20 08:32:32;;;;;;;6.43;4.10;;;;;;;;;;6216645;23;20373;-56
2022/05/20 08:34:59;;;;;;;5.40;4.60;;;;;;;;;;6212888;23;20454;-55
2022/05/20 08:37:25;;;;;;;5.83;4.53;;;;;;;;;;6232605;23;20370;-56
2022/05/20 08:39:51;;;;;;;5.90;4.50;;;;;;;;;;6219747;23;20371;-56
2022/05/20 08:42:20;;;;;;;5.37;4.87;;;;;;;;;;6234019;23;20977;-56
2022/05/20 08:44:47;;;;;;;5.43;4.93;;;;;;;;;;6206886;23;20154;-54
2022/05/20 08:47:21;;;;;;;5.30;4.37;;;;;;;;;;6231592;23;20367;-54
2022/05/20 08:49:47;;;;;;;5.20;4.80;;;;;;;;;;6214688;23;20425;-55
2022/05/20 08:52:13;;;;;;;5.00;4.60;;;;;;;;;;6232989;23;20386;-55
2022/05/20 08:54:41;;;;;;;6.83;4.33;;;;;;;;;;6217468;23;20861;-55
2022/05/20 08:57:18;;;;;;;5.77;4.27;;;;;;;;;;6232974;22;20174;-56
2022/05/20 08:59:44;;;;;;;5.60;4.27;;;;;;;;;;6216936;23;20443;-55
2022/05/20 09:02:14;;;;;;;8.27;4.60;;;;;;;;;;6231890;23;20739;-56
2022/05/20 09:04:41;;;;;;;6.27;4.90;;;;;;;;;;6213356;22;20214;-58
2022/05/20 09:07:14;;;;;;;8.10;5.10;;;;;;;;;;6201699;23;20509;-55
2022/05/20 09:09:45;;;;;;;6.07;4.27;;;;;;;;;;6215810;23;20448;-56
2022/05/20 09:12:12;;;;;;;6.70;5.10;;;;;;;;;;6231930;23;20372;-55
2022/05/20 09:17:24;;;;;;;6.00;5.10;;;;;;;;;;6234189;23;20801;-57
2022/05/20 09:19:55;;;;;;;6.07;4.63;;;;;;;;;;6225820;23;20382;-56
2022/05/20 09:22:25;;;;;;;6.13;5.20;;;;;;;;;;6233885;23;20371;-55
2022/05/20 09:24:51;;;;;;;5.43;4.87;;;;;;;;;;6218621;23;20941;-56
2022/05/20 09:27:30;;;;;;;6.10;5.00;;;;;;;;;;6233606;23;20385;-56
2022/05/20 09:30:05;;;;;;;10.00;6.27;;;;;;;;;;6220675;23;20382;-56
2022/05/20 09:32:35;;;;;;;4.87;4.37;;;;;;;;;;6237240;23;20397;-54
2022/05/20 09:35:04;;;;;;;6.03;4.20;;;;;;;;;;6229877;23;20398;-56
2022/05/20 09:37:32;;;;;;;5.40;4.90;;;;;;;;;;6236554;22;20741;-54
2022/05/20 09:39:59;;;;;;;5.00;4.50;;;;;;;;;;6224842;22;20398;-54
2022/05/20 09:42:27;;;;;;;12.33;5.27;;;;;;;;;;6222692;23;20374;-54
2022/05/20 09:44:54;;;;;;;6.90;4.60;;;;;;;;;;6233905;23;20428;-56
2022/05/20 09:47:39;;;;;;;6.00;5.17;;;;;;;;;;6226430;22;20807;-55
2022/05/20 09:50:12;;;;;;;9.13;5.20;;;;;;;;;;6237882;23;20374;-55
2022/05/20 09:52:41;;;;;;;11.87;5.47;;;;;;;;;;6203878;23;20393;-56
2022/05/20 09:55:12;;;;;;;7.70;4.90;;;;;;;;;;6231507;23;20390;-55
2022/05/20 09:58:08;;;;;;;9.23;5.10;;;;;;;;;;6231758;22;20451;-55
2022/05/20 10:00:55;;;;;;;15.80;6.60;;;;;;;;;;6250927;22;20374;-57
2022/05/20 10:03:29;;;;;;;5.33;4.83;;;;;;;;;;6214068;23;20389;-55
2022/05/20 10:06:01;;;;;;;9.10;6.43;;;;;;;;;;6228647;23;20438;-57
2022/05/20 10:08:37;;;;;;;7.40;5.07;;;;;;;;;;6215653;23;20458;-56
2022/05/20 10:11:09;;;;;;;8.10;4.73;;;;;;;;;;6236362;23;20381;-56
2022/05/20 10:13:36;;;;;;;6.33;5.70;;;;;;;;;;6229794;23;20386;-56
2022/05/20 10:16:13;;;;;;;4.30;3.90;;;;;;;;;;6231336;23;20393;-56
2022/05/20 10:18:42;;;;;;;9.37;5.10;;;;;;;;;;6221335;23;20474;-54
2022/05/20 10:21:21;;;;;;;6.67;4.60;;;;;;;;;;6234903;23;20386;-55
2022/05/20 10:23:50;;;;;;;5.67;4.60;;;;;;;;;;6213989;23;20366;-56
2022/05/20 10:26:35;;;;;;;6.10;5.57;;;;;;;;;;6234121;23;20433;-56
2022/05/20 10:34:47;;;;;;;8.30;4.60;;;;;;;;;;6212532;23;20720;-55
2022/05/20 10:37:34;;;;;;;7.10;5.00;;;;;;;;;;6238149;23;20374;-56
2022/05/20 10:40:21;;;;;;;7.43;4.60;;;;;;;;;;6204595;23;20406;-56
2022/05/20 10:42:51;;;;;;;9.23;4.37;;;;;;;;;;6235364;23;20371;-57
2022/05/20 10:48:36;;;;;;;5.33;4.40;;;;;;;;;;6234782;23;20413;-56
2022/05/20 10:51:17;;;;;;;6.23;4.17;;;;;;;;;;6222645;22;20452;-62
2022/05/20 10:54:11;;;;;;;5.77;3.90;;;;;;;;;;6236811;23;20394;-58
2022/05/20 10:57:02;;;;;;;7.13;3.90;;;;;;;;;;6232939;23;20386;-56
2022/05/20 10:59:44;;;;;;;4.00;3.50;;;;;;;;;;6234643;22;20424;-57
2022/05/20 11:02:25;;;;;;;4.33;3.93;;;;;;;;;;6223094;22;20778;-58
2022/05/20 11:05:05;;;;;;;11.53;4.90;;;;;;;;;;6219473;23;20377;-58
2022/05/20 11:07:40;;;;;;;6.50;3.93;;;;;;;;;;6211596;23;20417;-58
2022/05/20 11:10:24;;;;;;;5.63;4.40;;;;;;;;;;6218110;22;20480;-57
2022/05/20 11:12:59;;;;;;;4.23;3.63;;;;;;;;;;6236989;23;20583;-58
2022/05/20 11:15:38;;;;;;;6.60;4.40;;;;;;;;;;6226047;23;20447;-58
2022/05/20 11:18:14;;;;;;;7.77;4.10;;;;;;;;;;6234727;23;20664;-58
2022/05/20 11:21:05;;;;;;;6.40;4.13;;;;;;;;;;6215482;23;20547;-56
2022/05/20 11:26:44;;;;;;;6.30;4.53;;;;;;;;;;6220019;23;20510;-56
2022/05/20 11:29:28;;;;;;;6.77;4.43;;;;;;;;;;6234912;22;20385;-58
2022/05/20 11:31:58;;;;;;;5.80;4.40;;;;;;;;;;6231670;23;20374;-58
2022/05/20 11:37:29;;;;;;;8.60;4.40;;;;;;;;;;6227737;23;20377;-58
2022/05/20 11:40:13;;;;;;;8.97;4.03;;;;;;;;;;6226300;22;20370;-56
2022/05/20 11:42:46;;;;;;;4.97;3.73;;;;;;;;;;6235701;23;20392;-58
2022/05/20 11:45:56;;;;;;;4.60;4.07;;;;;;;;;;6227886;23;20841;-57
2022/05/20 11:48:46;;;;;;;8.13;4.67;;;;;;;;;;6202272;22;20667;-58
2022/05/20 11:51:23;;;;;;;5.27;4.00;;;;;;;;;;6224039;23;20398;-58
2022/05/20 11:53:57;;;;;;;5.77;3.77;;;;;;;;;;6215801;22;20807;-57
2022/05/20 11:56:42;;;;;;;6.00;5.00;;;;;;;;;;6233416;23;20380;-56
2022/05/20 11:59:15;;;;;;;5.40;3.90;;;;;;;;;;6214973;23;20725;-58
2022/05/20 12:01:41;;;;;;;5.27;3.60;;;;;;;;;;6220781;22;20890;-57
2022/05/20 12:04:07;;;;;;;4.50;4.03;;;;;;;;;;6226902;23;20397;-58
2022/05/20 12:06:34;;;;;;;6.40;4.37;;;;;;;;;;6219071;23;20426;-58
2022/05/20 12:09:32;;;;;;;5.53;4.00;;;;;;;;;;6230419;23;20374;-58
2022/05/20 12:12:07;;;;;;;7.10;4.30;;;;;;;;;;6228334;23;20472;-58
2022/05/20 12:14:59;;;;;;;4.93;4.30;;;;;;;;;;6222747;23;20760;-59
2022/05/20 12:17:35;;;;;;;7.53;4.37;;;;;;;;;;6229335;23;20375;-58
2022/05/20 12:25:44;;;;;;;4.13;3.60;;;;;;;;;;6211807;23;20508;-58
2022/05/20 12:28:11;;;;;;;5.17;4.33;;;;;;;;;;6232162;23;20414;-57
2022/05/20 12:30:38;;;;;;;8.87;4.37;;;;;;;;;;6207780;23;20803;-57
2022/05/20 12:33:21;;;;;;;6.50;4.03;;;;;;;;;;6229408;23;20529;-58
2022/05/20 12:36:06;;;;;;;6.67;4.63;;;;;;;;;;6214197;22;20806;-59
2022/05/20 12:38:32;;;;;;;7.10;4.97;;;;;;;;;;6228390;23;20451;-58
2022/05/20 12:40:58;;;;;;;6.20;3.93;;;;;;;;;;6219992;23;20425;-58
2022/05/20 12:43:46;;;;;;;6.10;4.03;;;;;;;;;;6229802;23;20718;-58
2022/05/20 12:46:15;;;;;;;7.57;4.70;;;;;;;;;;6209685;22;20442;-59
2022/05/20 12:48:41;;;;;;;5.00;4.53;;;;;;;;;;6227791;23;20375;-57
2022/05/20 12:51:08;;;;;;;6.50;4.50;;;;;;;;;;6227032;23;20869;-59
2022/05/20 12:53:34;;;;;;;6.63;4.40;;;;;;;;;;6213745;23;20896;-60
2022/05/20 12:56:00;;;;;;;5.90;4.43;;;;;;;;;;6228253;23;20727;-59
2022/05/20 12:58:27;;;;;;;6.90;4.63;;;;;;;;;;6210884;23;20460;-58
2022/05/20 13:00:54;;;;;;;4.77;4.37;;;;;;;;;;6227866;23;20796;-59
2022/05/20 13:03:29;;;;;;;5.23;3.33;;;;;;;;;;6216700;23;20595;-57
2022/05/20 13:05:58;;;;;;;5.03;4.40;;;;;;;;;;6230224;23;20441;-59
2022/05/20 13:08:31;;;;;;;6.00;3.63;;;;;;;;;;6213261;22;20599;-59
2022/05/20 13:11:20;;;;;;;6.50;3.57;;;;;;;;;;6226656;23;20691;-59
2022/05/20 13:13:53;;;;;;;5.33;3.80;;;;;;;;;;6215692;22;20680;-59
2022/05/20 13:16:20;;;;;;;4.40;3.60;;;;;;;;;;6229284;23;20362;-59
2022/05/20 13:18:56;;;;;;;5.30;4.30;;;;;;;;;;6212561;22;20912;-60
2022/05/20 13:21:22;;;;;;;5.53;3.30;;;;;;;;;;6231659;23;20943;-58
2022/05/20 13:23:50;;;;;;;6.67;3.90;;;;;;;;;;6226584;23;20405;-58
2022/05/20 13:26:31;;;;;;;6.80;3.70;;;;;;;;;;6235143;23;20886;-59
2022/05/20 13:29:10;;;;;;;4.10;3.40;;;;;;;;;;6209904;23;20473;-59
2022/05/20 13:31:36;;;;;;;6.00;4.00;;;;;;;;;;6235098;22;20424;-57
2022/05/20 13:34:02;;;;;;;7.97;3.47;;;;;;;;;;6244691;22;20433;-57
2022/05/20 13:36:38;;;;;;;7.50;3.50;;;;;;;;;;6233152;23;20864;-57
2022/05/20 13:39:29;;;;;;;4.57;3.93;;;;;;;;;;6217907;23;20381;-57
2022/05/20 13:41:56;;;;;;;5.77;3.63;;;;;;;;;;6229829;23;20504;-57
2022/05/20 13:44:31;;;;;;;4.23;3.50;;;;;;;;;;6243294;23;20728;-56
2022/05/20 13:49:51;;;;;;;8.03;4.20;;;;;;;;;;6232648;23;21003;-57
2022/05/20 13:52:18;;;;;;;11.43;3.47;;;;;;;;;;6232272;22;20374;-55
2022/05/20 13:54:53;;;;;;;5.63;3.60;;;;;;;;;;6229370;23;20957;-57
2022/05/20 13:57:25;;;;;;;4.50;3.60;;;;;;;;;;6205823;23;20385;-56
2022/05/20 13:59:53;;;;;;;4.30;3.60;;;;;;;;;;6228344;23;20736;-56
2022/05/20 14:02:48;;;;;;;14.20;4.77;;;;;;;;;;6232356;22;20374;-57
2022/05/20 14:05:18;;;;;;;5.80;3.60;;;;;;;;;;6233026;23;20864;-56
2022/05/20 14:07:48;;;;;;;6.43;4.93;;;;;;;;;;6228831;23;20452;-55
2022/05/20 14:10:19;;;;;;;4.20;3.30;;;;;;;;;;6223869;23;20731;-56
2022/05/20 14:12:52;;;;;;;5.23;4.00;;;;;;;;;;6230955;23;20378;-55
2022/05/20 14:15:26;;;;;;;3.77;3.37;;;;;;;;;;6224665;23;20382;-58
2022/05/20 14:17:55;;;;;;;7.10;3.60;;;;;;;;;;6227352;23;20385;-57
2022/05/20 14:20:21;;;;;;;5.30;3.50;;;;;;;;;;6211361;23;20383;-57
2022/05/20 14:22:48;;;;;;;13.00;4.03;;;;;;;;;;6233444;23;20381;-56
2022/05/20 14:25:14;;;;;;;6.00;3.53;;;;;;;;;;6227287;23;20474;-57
2022/05/20 14:27:41;;;;;;;5.33;3.30;;;;;;;;;;6233224;22;20404;-56
2022/05/20 14:30:34;;;;;;;6.27;3.77;;;;;;;;;;6226385;23;20385;-56
2022/05/20 14:33:04;;;;;;;4.27;3.40;;;;;;;;;;6229295;23;20374;-56
2022/05/20 14:35:31;;;;;;;7.83;3.83;;;;;;;;;;6225062;23;20374;-56
2022/05/20 14:37:59;;;;;;;7.13;4.07;;;;;;;;;;6235091;23;21108;-54
2022/05/20 14:40:27;;;;;;;9.60;4.70;;;;;;;;;;6218155;23;20425;-55
2022/05/20 14:42:53;;;;;;;6.73;5.20;;;;;;;;;;6226525;23;20867;-55
2022/05/20 14:45:32;;;;;;;7.03;5.47;;;;;;;;;;6204757;23;20464;-55
2022/05/20 14:48:04;;;;;;;8.50;4.80;;;;;;;;;;6228089;23;20739;-55
2022/05/20 14:50:36;;;;;;;6.93;4.73;;;;;;;;;;6216692;23;20417;-56
2022/05/20 14:53:06;;;;;;;7.03;5.30;;;;;;;;;;6224811;23;20489;-56
2022/05/20 14:55:42;;;;;;;10.47;5.50;;;;;;;;;;6216121;22;20393;-56
2022/05/20 14:58:12;;;;;;;6.67;5.33;;;;;;;;;;6237175;23;20461;-54
2022/05/20 15:00:57;;;;;;;7.27;5.30;;;;;;;;;;6228818;22;20374;-57
2022/05/20 15:03:24;;;;;;;6.50;5.40;;;;;;;;;;6221481;23;20362;-55
2022/05/20 15:05:51;;;;;;;6.00;5.40;;;;;;;;;;6239529;23;20438;-56
2022/05/20 15:08:16;;;;;;;7.43;5.40;;;;;;;;;;6221686;23;20381;-55
2022/05/20 15:11:05;;;;;;;6.80;5.37;;;;;;;;;;6237254;23;20473;-56
2022/05/20 15:13:32;;;;;;;12.23;5.23;;;;;;;;;;6183471;23;20152;-56
2022/05/20 15:15:58;;;;;;;11.27;5.73;;;;;;;;;;6225800;23;20382;-55
2022/05/20 15:18:24;;;;;;;7.00;5.37;;;;;;;;;;6234673;23;20420;-56
2022/05/20 15:20:57;;;;;;;6.87;5.70;;;;;;;;;;6240043;23;20776;-56
2022/05/20 15:23:23;;;;;;;8.30;5.53;;;;;;;;;;6194528;23;20210;-56
2022/05/20 15:25:55;;;;;;;7.03;5.10;;;;;;;;;;6244068;23;20520;-56
2022/05/20 15:36:38;;;;;;;7.77;5.07;;;;;;;;;;6216715;23;20467;-54
2022/05/20 15:39:05;;;;;;;8.50;4.70;;;;;;;;;;6238305;23;20374;-57
2022/05/20 15:41:31;;;;;;;6.17;5.13;;;;;;;;;;6236519;22;20367;-57
2022/05/20 15:43:58;;;;;;;7.17;5.57;;;;;;;;;;6239762;23;20398;-53
2022/05/20 15:46:24;;;;;;;9.33;5.43;;;;;;;;;;6223713;23;20812;-54
2022/05/20 15:48:50;;;;;;;10.30;6.00;;;;;;;;;;6235417;23;20516;-55
2022/05/20 15:51:16;;;;;;;13.87;5.60;;;;;;;;;;6227935;23;20390;-53
2022/05/20 15:53:42;;;;;;;12.03;4.80;;;;;;;;;;6239092;23;20595;-54
2022/05/20 15:56:08;;;;;;;7.70;4.27;;;;;;;;;;6218583;23;20414;-56
2022/05/20 15:58:34;;;;;;;8.43;5.20;;;;;;;;;;6237239;23;20896;-55
2022/05/20 16:01:01;;;;;;;8.27;4.53;;;;;;;;;;6233571;23;20378;-56
2022/05/20 16:03:30;;;;;;;5.57;4.90;;;;;;;;;;6211673;23;20755;-55
2022/05/20 16:06:10;;;;;;;9.33;4.70;;;;;;;;;;6192267;23;20624;-56
2022/05/20 16:08:36;;;;;;;8.70;5.80;;;;;;;;;;6237529;22;20371;-55
2022/05/20 16:11:03;;;;;;;4.80;4.30;;;;;;;;;;6234189;23;20700;-56